Time;durP1;ratioP1;P1;durP2;ratioP2;P2;SDS_P1;SDS_P2;PMS_P1;PMS_P2;Temp;Humidity;BMP_temperature;BMP_pressure;BME280_temperature;BME280_humidity;BME280_pressure;Samples;Min_cycle;Max_cycle;Signal;HPM_P1;HPM_P2
2022/08/22 00:01:49;;;;;;;;;;;17.10;99.90;;;;;;5088278;28;19924;-55
2022/08/22 00:04:40;;;;;;;;;;;17.10;99.90;;;;;;5089358;28;19928;-55
2022/08/22 00:07:43;;;;;;;;;;;17.10;99.90;;;;;;5089901;28;20287;-54
2022/08/22 00:10:14;;;;;;;;;;;17.10;99.90;;;;;;5066549;28;19932;-54
2022/08/22 00:13:04;;;;;;;;;;;17.10;99.90;;;;;;5072024;28;19932;-54
2022/08/22 00:15:50;;;;;;;;;;;17.10;99.90;;;;;;5089715;28;19931;-55
2022/08/22 00:18:27;;;;;;;;;;;17.10;99.90;;;;;;5089757;28;19935;-58
2022/08/22 00:21:15;;;;;;;;;;;17.10;99.90;;;;;;5089832;28;20005;-58
2022/08/22 00:24:06;;;;;;;;;;;17.10;99.90;;;;;;5087377;28;19924;-62
2022/08/22 00:26:47;;;;;;;;;;;17.10;99.90;;;;;;5086253;28;19931;-61
2022/08/22 00:29:22;;;;;;;;;;;17.20;99.90;;;;;;5088064;28;19924;-59
2022/08/22 00:31:53;;;;;;;;;;;17.20;99.90;;;;;;5087143;28;19947;-62
2022/08/22 00:34:24;;;;;;;;;;;17.20;99.90;;;;;;5085606;28;20287;-61
2022/08/22 00:36:55;;;;;;;;;;;17.10;99.90;;;;;;5088219;28;19924;-62
2022/08/22 00:39:23;;;;;;;;;;;17.10;99.90;;;;;;5078918;28;19932;-61
2022/08/22 00:41:50;;;;;;;;;;;17.10;99.90;;;;;;5068969;28;19931;-62
2022/08/22 00:44:40;;;;;;;;;;;17.10;99.90;;;;;;5083416;28;19931;-55
2022/08/22 00:47:15;;;;;;;;;;;17.10;99.90;;;;;;5089374;28;19958;-61
2022/08/22 00:50:00;;;;;;;;;;;17.10;99.90;;;;;;5088930;28;19932;-58
2022/08/22 00:52:43;;;;;;;;;;;17.10;99.90;;;;;;5089172;28;19931;-55
2022/08/22 00:55:29;;;;;;;;;;;17.10;99.90;;;;;;5088612;28;19931;-61
2022/08/22 00:58:04;;;;;;;;;;;17.10;99.90;;;;;;5086405;28;19924;-60
2022/08/22 01:00:36;;;;;;;;;;;17.00;99.90;;;;;;5086061;28;19928;-61
2022/08/22 01:03:22;;;;;;;;;;;17.10;99.90;;;;;;5085807;28;19924;-60
2022/08/22 01:06:03;;;;;;;;;;;17.10;99.90;;;;;;5084475;28;19932;-59
2022/08/22 01:08:50;;;;;;;;;;;17.10;99.90;;;;;;5081919;28;20307;-59
2022/08/22 01:11:17;;;;;;;;;;;17.00;99.90;;;;;;5065310;28;19925;-62
2022/08/22 01:14:03;;;;;;;;;;;17.00;99.90;;;;;;5078110;28;20379;-58
2022/08/22 01:16:33;;;;;;;;;;;17.00;99.90;;;;;;5082035;28;20299;-57
2022/08/22 01:19:10;;;;;;;;;;;17.00;99.90;;;;;;5085360;28;19935;-60
2022/08/22 01:21:37;;;;;;;;;;;17.00;99.90;;;;;;5069260;28;19943;-57
2022/08/22 01:24:14;;;;;;;;;;;16.90;99.90;;;;;;5072763;28;20501;-59
2022/08/22 01:26:43;;;;;;;;;;;16.90;99.90;;;;;;5065553;28;19924;-62
2022/08/22 01:29:17;;;;;;;;;;;16.90;99.90;;;;;;5074904;28;20569;-61
2022/08/22 01:32:08;;;;;;;;;;;16.90;99.90;;;;;;5067370;28;19932;-59
2022/08/22 01:34:54;;;;;;;;;;;16.90;99.90;;;;;;5068834;28;19924;-56
2022/08/22 01:37:25;;;;;;;;;;;16.90;99.90;;;;;;5068577;28;19928;-61
2022/08/22 01:40:14;;;;;;;;;;;16.90;99.90;;;;;;5084823;28;20315;-59
2022/08/22 01:42:45;;;;;;;;;;;16.90;99.90;;;;;;5072172;28;20089;-57
2022/08/22 01:45:24;;;;;;;;;;;16.90;99.90;;;;;;5068378;28;19936;-56
2022/08/22 01:47:55;;;;;;;;;;;16.90;99.90;;;;;;5080949;28;20302;-55
2022/08/22 01:50:29;;;;;;;;;;;16.90;99.90;;;;;;5086044;28;19925;-55
2022/08/22 01:53:08;;;;;;;;;;;16.90;99.90;;;;;;5084530;28;19924;-58
2022/08/22 01:55:42;;;;;;;;;;;16.90;99.90;;;;;;5068735;28;19935;-58
2022/08/22 01:58:18;;;;;;;;;;;16.90;99.90;;;;;;5072234;28;19942;-57
2022/08/22 02:01:08;;;;;;;;;;;16.90;99.90;;;;;;5068950;28;20355;-55
2022/08/22 02:03:52;;;;;;;;;;;16.90;99.90;;;;;;5067846;28;19925;-56
2022/08/22 02:06:23;;;;;;;;;;;16.80;99.90;;;;;;5077299;28;19925;-54
2022/08/22 02:09:20;;;;;;;;;;;16.80;99.90;;;;;;5087862;28;19924;-54
2022/08/22 02:11:47;;;;;;;;;;;16.80;99.90;;;;;;5088324;28;19935;-55
2022/08/22 02:14:31;;;;;;;;;;;16.70;99.90;;;;;;5088051;28;19942;-56
2022/08/22 02:17:08;;;;;;;;;;;16.70;99.90;;;;;;5071153;28;19935;-57
2022/08/22 02:20:01;;;;;;;;;;;16.70;99.90;;;;;;5085195;28;19931;-56
2022/08/22 02:22:37;;;;;;;;;;;16.70;99.90;;;;;;5067852;28;19924;-55
2022/08/22 02:25:15;;;;;;;;;;;16.70;99.90;;;;;;5068450;28;20323;-55
2022/08/22 02:27:57;;;;;;;;;;;16.70;99.90;;;;;;5074060;28;20308;-56
2022/08/22 02:30:27;;;;;;;;;;;16.60;99.90;;;;;;5090786;28;19924;-55
2022/08/22 02:33:09;;;;;;;;;;;16.70;99.90;;;;;;5094658;28;19944;-55
2022/08/22 02:35:59;;;;;;;;;;;16.60;99.90;;;;;;5095037;28;19931;-55
2022/08/22 02:38:40;;;;;;;;;;;16.60;99.90;;;;;;5093447;28;20534;-55
2022/08/22 02:41:13;;;;;;;;;;;16.60;99.90;;;;;;5094884;28;19931;-55
2022/08/22 02:43:55;;;;;;;;;;;16.50;99.90;;;;;;5095066;28;19924;-56
2022/08/22 02:46:38;;;;;;;;;;;16.50;99.90;;;;;;5078653;28;19935;-55
2022/08/22 02:49:19;;;;;;;;;;;16.50;99.90;;;;;;5074552;28;19931;-61
2022/08/22 02:51:50;;;;;;;;;;;16.50;99.90;;;;;;5074045;28;19931;-59
2022/08/22 02:54:23;;;;;;;;;;;16.40;99.90;;;;;;5074475;28;19933;-57
2022/08/22 02:57:00;;;;;;;;;;;16.40;99.90;;;;;;5074329;28;19924;-62
2022/08/22 02:59:31;;;;;;;;;;;16.40;99.90;;;;;;5074378;28;19924;-58
2022/08/22 03:02:18;;;;;;;;;;;16.30;99.90;;;;;;5074251;28;19932;-60
2022/08/22 03:04:49;;;;;;;;;;;16.30;99.90;;;;;;5072421;28;19925;-62
2022/08/22 03:07:17;;;;;;;;;;;16.30;99.90;;;;;;5073170;28;19931;-62
2022/08/22 03:09:47;;;;;;;;;;;16.20;99.90;;;;;;5072882;28;19924;-59
2022/08/22 03:12:15;;;;;;;;;;;16.20;99.90;;;;;;5074061;28;20375;-60
2022/08/22 03:14:48;;;;;;;;;;;16.20;99.90;;;;;;5073772;28;20372;-62
2022/08/22 03:17:25;;;;;;;;;;;16.10;99.90;;;;;;5055590;28;20459;-59
2022/08/22 03:20:03;;;;;;;;;;;16.10;99.90;;;;;;5073831;28;19924;-61
2022/08/22 03:22:36;;;;;;;;;;;16.10;99.90;;;;;;5074013;28;19924;-60
2022/08/22 03:25:03;;;;;;;;;;;16.10;99.90;;;;;;5073878;28;19929;-62
2022/08/22 03:27:42;;;;;;;;;;;16.10;99.90;;;;;;5073593;28;19931;-62
2022/08/22 03:30:20;;;;;;;;;;;16.10;99.90;;;;;;5072489;28;19955;-63
2022/08/22 03:32:53;;;;;;;;;;;16.10;99.90;;;;;;5073791;28;19931;-63
2022/08/22 03:35:23;;;;;;;;;;;16.10;99.90;;;;;;5073769;28;19924;-60
2022/08/22 03:37:53;;;;;;;;;;;16.10;99.90;;;;;;5073480;28;20296;-60
2022/08/22 03:40:20;;;;;;;;;;;16.10;99.90;;;;;;5073471;28;19932;-58
2022/08/22 03:43:16;;;;;;;;;;;16.10;99.90;;;;;;5072338;28;20283;-62
2022/08/22 03:45:57;;;;;;;;;;;16.10;99.90;;;;;;5073385;28;19925;-62
2022/08/22 03:48:49;;;;;;;;;;;16.10;99.90;;;;;;5073422;28;19999;-60
2022/08/22 03:51:23;;;;;;;;;;;16.10;99.90;;;;;;5073051;28;19929;-58
2022/08/22 03:54:06;;;;;;;;;;;16.00;99.90;;;;;;5072002;28;19932;-57
2022/08/22 03:56:58;;;;;;;;;;;16.10;99.90;;;;;;5071958;28;19928;-63
2022/08/22 03:59:33;;;;;;;;;;;16.10;99.90;;;;;;5073471;28;20388;-58
2022/08/22 04:02:06;;;;;;;;;;;16.10;99.90;;;;;;5073099;28;19931;-61
2022/08/22 04:05:13;;;;;;;;;;;16.10;99.90;;;;;;5072886;28;19924;-59
2022/08/22 04:07:42;;;;;;;;;;;16.10;99.90;;;;;;5071816;28;19924;-59
2022/08/22 04:10:14;;;;;;;;;;;16.10;99.90;;;;;;5072777;28;19925;-60
2022/08/22 04:12:48;;;;;;;;;;;16.10;99.90;;;;;;5071756;28;19924;-55
2022/08/22 04:15:34;;;;;;;;;;;16.10;99.90;;;;;;5072887;28;19932;-56
2022/08/22 04:18:04;;;;;;;;;;;16.10;99.90;;;;;;5072593;28;19924;-61
2022/08/22 04:20:50;;;;;;;;;;;16.00;99.90;;;;;;5073000;28;19924;-56
2022/08/22 04:23:36;;;;;;;;;;;16.00;99.90;;;;;;5072714;28;19925;-57
2022/08/22 04:26:10;;;;;;;;;;;16.00;99.90;;;;;;5072514;28;19924;-62
2022/08/22 04:28:51;;;;;;;;;;;16.00;99.90;;;;;;5071366;28;19924;-55
2022/08/22 04:31:26;;;;;;;;;;;15.90;99.90;;;;;;5072630;28;19924;-60
2022/08/22 04:34:14;;;;;;;;;;;15.90;99.90;;;;;;5072609;28;19935;-55
2022/08/22 04:36:44;;;;;;;;;;;15.90;99.90;;;;;;5072251;28;19932;-55
2022/08/22 04:39:12;;;;;;;;;;;15.90;99.90;;;;;;5071150;28;19932;-60
2022/08/22 04:41:42;;;;;;;;;;;15.90;99.90;;;;;;5072369;28;19924;-61
2022/08/22 04:44:16;;;;;;;;;;;15.90;99.90;;;;;;5072397;28;19934;-60
2022/08/22 04:46:47;;;;;;;;;;;15.90;99.90;;;;;;5072190;28;19932;-61
2022/08/22 04:49:18;;;;;;;;;;;15.90;99.90;;;;;;5080065;28;19924;-60
2022/08/22 04:51:47;;;;;;;;;;;15.90;99.90;;;;;;5069404;28;20300;-62
2022/08/22 04:54:21;;;;;;;;;;;15.90;99.90;;;;;;5069074;28;19931;-62
2022/08/22 04:56:51;;;;;;;;;;;15.90;99.90;;;;;;5068889;28;19924;-59
2022/08/22 04:59:19;;;;;;;;;;;15.90;99.90;;;;;;5070068;28;19924;-60
2022/08/22 05:01:46;;;;;;;;;;;15.80;99.90;;;;;;5086924;28;19939;-62
2022/08/22 05:04:15;;;;;;;;;;;15.90;99.90;;;;;;5066753;28;19936;-60
2022/08/22 05:06:45;;;;;;;;;;;15.90;99.90;;;;;;5065668;28;19925;-58
2022/08/22 05:09:15;;;;;;;;;;;15.90;99.90;;;;;;5083668;28;19924;-61
2022/08/22 05:11:46;;;;;;;;;;;15.90;99.90;;;;;;5087288;28;19943;-55
2022/08/22 05:14:22;;;;;;;;;;;15.90;99.90;;;;;;5089056;28;19924;-62
2022/08/22 05:16:51;;;;;;;;;;;15.90;99.90;;;;;;5088951;28;19924;-58
2022/08/22 05:19:22;;;;;;;;;;;15.80;99.90;;;;;;5072727;28;19947;-62
2022/08/22 05:21:59;;;;;;;;;;;15.80;99.90;;;;;;5070217;28;19931;-61
2022/08/22 05:24:30;;;;;;;;;;;16.50;99.90;;;;;;5088621;28;20283;-62
2022/08/22 05:27:02;;;;;;;;;;;15.90;99.90;;;;;;5087082;28;19924;-62
2022/08/22 05:29:31;;;;;;;;;;;15.90;99.90;;;;;;5050807;28;19924;-63
2022/08/22 05:32:01;;;;;;;;;;;15.80;99.90;;;;;;5067457;28;19928;-62
2022/08/22 05:34:31;;;;;;;;;;;15.90;99.90;;;;;;5071716;28;20387;-63
2022/08/22 05:37:11;;;;;;;;;;;15.90;99.90;;;;;;5073544;28;19924;-63
2022/08/22 05:39:45;;;;;;;;;;;15.90;99.90;;;;;;5068474;28;19929;-63
2022/08/22 05:42:21;;;;;;;;;;;15.80;99.90;;;;;;5073363;28;19924;-61
2022/08/22 05:44:49;;;;;;;;;;;15.90;99.90;;;;;;5086857;28;20272;-62
2022/08/22 05:47:35;;;;;;;;;;;15.90;99.90;;;;;;5088311;28;19963;-63
2022/08/22 05:50:02;;;;;;;;;;;15.90;99.90;;;;;;5068677;28;19925;-62
2022/08/22 05:52:36;;;;;;;;;;;15.90;99.90;;;;;;5083754;28;19924;-63
2022/08/22 05:55:15;;;;;;;;;;;15.90;99.90;;;;;;5088446;28;20381;-62
2022/08/22 05:57:47;;;;;;;;;;;15.90;99.90;;;;;;5085402;28;19931;-60
2022/08/22 06:00:20;;;;;;;;;;;15.90;99.90;;;;;;5069153;28;19929;-60
2022/08/22 06:02:48;;;;;;;;;;;15.90;99.90;;;;;;5078932;28;19924;-61
2022/08/22 06:05:20;;;;;;;;;;;16.00;99.90;;;;;;5071774;28;19936;-62
2022/08/22 06:07:49;;;;;;;;;;;16.00;99.90;;;;;;5077970;28;19953;-60
2022/08/22 06:10:21;;;;;;;;;;;16.00;99.90;;;;;;5089227;28;19928;-56
2022/08/22 06:12:48;;;;;;;;;;;16.00;99.90;;;;;;5078563;28;20260;-62
2022/08/22 06:15:18;;;;;;;;;;;16.00;99.90;;;;;;5078510;28;19925;-61
2022/08/22 06:17:49;;;;;;;;;;;16.00;99.90;;;;;;5086846;28;19931;-60
2022/08/22 06:20:40;;;;;;;;;;;16.00;99.90;;;;;;5091639;28;19924;-61
2022/08/22 06:23:11;;;;;;;;;;;16.00;99.90;;;;;;5071849;28;19948;-62
2022/08/22 06:25:40;;;;;;;;;;;16.00;99.90;;;;;;5070552;28;19953;-62
2022/08/22 06:28:08;;;;;;;;;;;16.00;99.90;;;;;;5077186;28;20219;-55
2022/08/22 06:30:38;;;;;;;;;;;16.00;99.90;;;;;;5077384;28;19924;-59
2022/08/22 06:33:08;;;;;;;;;;;16.00;99.90;;;;;;5080860;28;20078;-58
2022/08/22 06:38:53;;;;;;;;;;;16.10;99.90;;;;;;5091244;28;20300;-56
2022/08/22 06:41:23;;;;;;;;;;;16.10;99.90;;;;;;5090018;28;20084;-55
2022/08/22 06:43:51;;;;;;;;;;;16.20;99.90;;;;;;5088291;28;19928;-55
2022/08/22 06:46:20;;;;;;;;;;;16.20;99.90;;;;;;5089830;28;19928;-58
2022/08/22 06:48:48;;;;;;;;;;;16.30;99.90;;;;;;5086258;28;19924;-56
2022/08/22 06:51:16;;;;;;;;;;;16.30;99.90;;;;;;5071307;28;19928;-55
2022/08/22 06:53:45;;;;;;;;;;;16.30;99.90;;;;;;5087170;28;19924;-58
2022/08/22 06:56:25;;;;;;;;;;;16.40;99.90;;;;;;5091426;28;19924;-55
2022/08/22 06:58:55;;;;;;;;;;;16.30;99.90;;;;;;5091042;28;20402;-56
2022/08/22 07:01:24;;;;;;;;;;;16.40;99.90;;;;;;5089759;28;19935;-55
2022/08/22 07:03:53;;;;;;;;;;;16.30;99.90;;;;;;5082329;28;20436;-58
2022/08/22 07:06:33;;;;;;;;;;;16.30;99.90;;;;;;5068120;28;19943;-60
2022/08/22 07:09:02;;;;;;;;;;;16.30;99.90;;;;;;5086677;28;20379;-59
2022/08/22 07:11:35;;;;;;;;;;;16.20;99.90;;;;;;5090921;28;19931;-56
2022/08/22 07:14:05;;;;;;;;;;;16.20;99.90;;;;;;5089622;28;20410;-61
2022/08/22 07:16:41;;;;;;;;;;;16.20;99.90;;;;;;5089736;28;20281;-61
2022/08/22 07:19:20;;;;;;;;;;;16.20;99.90;;;;;;5085681;28;19939;-62
2022/08/22 07:21:48;;;;;;;;;;;16.20;99.90;;;;;;5070519;28;20402;-57
2022/08/22 07:24:18;;;;;;;;;;;16.30;99.90;;;;;;5090910;28;19928;-59
2022/08/22 07:26:48;;;;;;;;;;;16.30;99.90;;;;;;5090639;28;19932;-60
2022/08/22 07:29:26;;;;;;;;;;;16.40;99.90;;;;;;5090573;28;19935;-58
2022/08/22 07:32:02;;;;;;;;;;;16.40;99.90;;;;;;5090350;28;20504;-55
2022/08/22 07:34:40;;;;;;;;;;;16.60;99.90;;;;;;5082099;28;19924;-55
2022/08/22 07:37:10;;;;;;;;;;;16.70;99.90;;;;;;5070583;28;20087;-58
2022/08/22 07:39:57;;;;;;;;;;;16.70;99.90;;;;;;5090690;28;20295;-55
2022/08/22 07:42:45;;;;;;;;;;;16.90;99.90;;;;;;5089172;28;20525;-55
2022/08/22 07:45:21;;;;;;;;;;;17.00;99.90;;;;;;5090497;28;19931;-56
2022/08/22 07:47:52;;;;;;;;;;;17.10;99.90;;;;;;5090363;28;19924;-62
2022/08/22 07:50:23;;;;;;;;;;;17.10;99.90;;;;;;5076257;28;19930;-58
2022/08/22 07:52:51;;;;;;;;;;;17.10;99.90;;;;;;5078397;28;19931;-60
2022/08/22 07:55:23;;;;;;;;;;;17.10;99.90;;;;;;5088415;28;19932;-61
2022/08/22 07:57:56;;;;;;;;;;;17.10;99.90;;;;;;5088871;28;19931;-60
2022/08/22 08:00:24;;;;;;;;;;;17.20;99.90;;;;;;5090258;28;19951;-60
2022/08/22 08:02:53;;;;;;;;;;;17.20;99.90;;;;;;5088587;28;20291;-62
2022/08/22 08:05:26;;;;;;;;;;;17.30;99.90;;;;;;5076815;28;20284;-60
2022/08/22 08:07:55;;;;;;;;;;;17.40;99.90;;;;;;5076022;28;19931;-61
2022/08/22 08:10:26;;;;;;;;;;;17.50;99.90;;;;;;5090030;28;20383;-60
2022/08/22 08:12:57;;;;;;;;;;;17.60;99.90;;;;;;5089922;28;19935;-60
2022/08/22 08:15:31;;;;;;;;;;;17.60;99.90;;;;;;5089647;28;20290;-61
2022/08/22 08:18:04;;;;;;;;;;;17.70;99.90;;;;;;5088402;28;20370;-59
2022/08/22 08:20:33;;;;;;;;;;;17.70;99.90;;;;;;5076225;28;19924;-58
2022/08/22 08:23:02;;;;;;;;;;;17.80;99.90;;;;;;5077065;28;19924;-59
2022/08/22 08:25:31;;;;;;;;;;;17.80;99.90;;;;;;5089591;28;19998;-59
2022/08/22 08:30:51;;;;;;;;;;;17.90;99.90;;;;;;5089188;28;19924;-61
2022/08/22 08:33:21;;;;;;;;;;;18.00;99.90;;;;;;5089299;28;19924;-62
2022/08/22 08:35:56;;;;;;;;;;;18.10;99.90;;;;;;5072909;28;19932;-58
2022/08/22 08:38:56;;;;;;;;;;;18.20;99.90;;;;;;5080271;28;19931;-62
2022/08/22 08:41:33;;;;;;;;;;;18.30;99.90;;;;;;5088445;28;19928;-59
2022/08/22 08:44:00;;;;;;;;;;;18.40;99.90;;;;;;5089133;28;20279;-62
2022/08/22 08:46:31;;;;;;;;;;;18.50;99.90;;;;;;5088920;28;19928;-59
2022/08/22 08:49:11;;;;;;;;;;;18.60;99.90;;;;;;5088959;28;19924;-61
2022/08/22 08:51:57;;;;;;;;;;;18.60;99.90;;;;;;5068803;28;19936;-60
2022/08/22 08:54:28;;;;;;;;;;;18.70;99.90;;;;;;5069072;28;19924;-61
2022/08/22 08:57:09;;;;;;;;;;;18.80;99.90;;;;;;5069016;28;20277;-61
2022/08/22 08:59:52;;;;;;;;;;;18.90;99.90;;;;;;5067830;28;19928;-59
2022/08/22 09:02:45;;;;;;;;;;;19.00;99.90;;;;;;5071377;28;19924;-63
2022/08/22 09:05:17;;;;;;;;;;;19.20;99.90;;;;;;5072373;28;19925;-63
2022/08/22 09:07:55;;;;;;;;;;;19.30;99.90;;;;;;5073920;28;19938;-57
2022/08/22 09:10:27;;;;;;;;;;;19.50;99.90;;;;;;5089064;28;19935;-62
2022/08/22 09:13:07;;;;;;;;;;;19.50;99.90;;;;;;5088645;28;19939;-63
2022/08/22 09:15:46;;;;;;;;;;;19.60;99.90;;;;;;5088646;28;20280;-60
2022/08/22 09:19:01;;;;;;;;;;;19.70;99.90;;;;;;5073249;28;19924;-60
2022/08/22 09:21:28;;;;;;;;;;;19.80;99.90;;;;;;5070166;28;19928;-60
2022/08/22 09:24:18;;;;;;;;;;;19.90;99.90;;;;;;5083086;28;20209;-62
2022/08/22 09:26:47;;;;;;;;;;;19.90;99.90;;;;;;5085111;28;20307;-60
2022/08/22 09:29:15;;;;;;;;;;;20.00;99.90;;;;;;5086133;28;19924;-55
2022/08/22 09:31:52;;;;;;;;;;;20.10;99.90;;;;;;5088590;28;19931;-62
2022/08/22 09:34:29;;;;;;;;;;;20.20;99.90;;;;;;5090085;28;19936;-56
2022/08/22 09:37:15;;;;;;;;;;;20.30;99.90;;;;;;5073015;28;19924;-57
2022/08/22 09:39:43;;;;;;;;;;;20.40;99.90;;;;;;5072704;28;19948;-56
2022/08/22 09:42:19;;;;;;;;;;;20.50;99.90;;;;;;5075474;28;19928;-62
2022/08/22 09:45:05;;;;;;;;;;;20.50;99.90;;;;;;5091747;28;20314;-62
2022/08/22 09:47:40;;;;;;;;;;;20.60;99.90;;;;;;5091488;28;19931;-63
2022/08/22 09:50:21;;;;;;;;;;;20.70;99.90;;;;;;5088720;28;20582;-63
2022/08/22 09:52:48;;;;;;;;;;;20.70;99.90;;;;;;5091073;28;19924;-60
2022/08/22 09:55:25;;;;;;;;;;;20.80;99.90;;;;;;5092522;28;19924;-60
2022/08/22 09:58:05;;;;;;;;;;;20.80;99.90;;;;;;5092292;28;19924;-59
2022/08/22 10:00:43;;;;;;;;;;;21.00;99.90;;;;;;5092483;28;19928;-62
2022/08/22 10:03:27;;;;;;;;;;;21.20;99.90;;;;;;5092159;28;19923;-60
2022/08/22 10:06:01;;;;;;;;;;;21.40;99.60;;;;;;5082658;28;20275;-61
2022/08/22 10:08:45;;;;;;;;;;;21.60;99.50;;;;;;5083484;28;19924;-63
2022/08/22 10:11:19;;;;;;;;;;;21.70;98.90;;;;;;5090828;28;19935;-60
2022/08/22 10:14:08;;;;;;;;;;;21.80;98.90;;;;;;5092018;28;19943;-62
2022/08/22 10:16:35;;;;;;;;;;;21.90;97.60;;;;;;5092061;28;19924;-63
2022/08/22 10:19:22;;;;;;;;;;;21.90;97.60;;;;;;5091885;28;19932;-63
2022/08/22 10:22:11;;;;;;;;;;;21.90;97.80;;;;;;5075693;28;19924;-63
2022/08/22 10:24:58;;;;;;;;;;;21.90;97.60;;;;;;5071762;28;19928;-64
2022/08/22 10:27:28;;;;;;;;;;;21.80;96.90;;;;;;5073790;28;19924;-66
2022/08/22 10:30:02;;;;;;;;;;;21.80;96.70;;;;;;5092110;28;20463;-60
2022/08/22 10:32:56;;;;;;;;;;;21.70;96.70;;;;;;5091534;28;19931;-57
2022/08/22 10:35:33;;;;;;;;;;;21.60;96.80;;;;;;5079519;28;19935;-61
2022/08/22 10:38:06;;;;;;;;;;;21.60;96.80;;;;;;5078426;28;19924;-62
2022/08/22 10:40:40;;;;;;;;;;;21.70;96.60;;;;;;5073893;28;20379;-59
2022/08/22 10:43:17;;;;;;;;;;;21.70;96.40;;;;;;5091034;28;19931;-58
2022/08/22 10:45:46;;;;;;;;;;;21.70;96.10;;;;;;5089606;28;19925;-62
2022/08/22 10:48:21;;;;;;;;;;;21.70;95.70;;;;;;5091443;28;20418;-57
2022/08/22 10:50:50;;;;;;;;;;;21.60;96.10;;;;;;5085516;28;19925;-58
2022/08/22 10:53:29;;;;;;;;;;;21.60;96.60;;;;;;5082040;28;19924;-57
2022/08/22 10:56:17;;;;;;;;;;;21.70;96.40;;;;;;5091555;28;20108;-59
2022/08/22 10:58:47;;;;;;;;;;;21.70;96.40;;;;;;5083538;28;19935;-57
2022/08/22 11:01:16;;;;;;;;;;;21.70;96.70;;;;;;5089616;28;20368;-57
2022/08/22 11:04:09;;;;;;;;;;;21.80;96.50;;;;;;5090981;28;19931;-58
2022/08/22 11:06:41;;;;;;;;;;;21.80;96.70;;;;;;5079236;28;19925;-56
2022/08/22 11:09:23;;;;;;;;;;;21.90;96.90;;;;;;5086032;28;19924;-59
2022/08/22 11:12:01;;;;;;;;;;;22.10;96.70;;;;;;5091105;28;20252;-56
2022/08/22 11:14:37;;;;;;;;;;;22.30;96.10;;;;;;5090762;28;19925;-57
2022/08/22 11:17:13;;;;;;;;;;;22.40;95.80;;;;;;5090930;28;20519;-60
2022/08/22 11:20:08;;;;;;;;;;;22.50;95.50;;;;;;5091006;28;20360;-60
2022/08/22 11:22:38;;;;;;;;;;;22.70;94.70;;;;;;5077094;28;19939;-60
2022/08/22 11:25:12;;;;;;;;;;;22.90;94.80;;;;;;5090836;28;19924;-55
2022/08/22 11:27:55;;;;;;;;;;;23.00;94.80;;;;;;5090524;28;19973;-56
2022/08/22 11:30:31;;;;;;;;;;;23.10;94.50;;;;;;5090947;28;19924;-58
2022/08/22 11:33:49;;;;;;;;;;;23.10;93.90;;;;;;5090431;28;19928;-61
2022/08/22 11:36:19;;;;;;;;;;;23.10;93.40;;;;;;5050712;28;19924;-62
2022/08/22 11:38:59;;;;;;;;;;;23.00;93.90;;;;;;5067469;28;20303;-63
2022/08/22 11:41:35;;;;;;;;;;;23.10;94.10;;;;;;5081263;28;19924;-61
2022/08/22 11:44:02;;;;;;;;;;;23.10;94.10;;;;;;5088906;28;19924;-57
2022/08/22 11:46:30;;;;;;;;;;;23.20;94.10;;;;;;5090463;28;19931;-62
2022/08/22 11:48:57;;;;;;;;;;;23.20;93.80;;;;;;5071308;28;19928;-62
2022/08/22 11:51:36;;;;;;;;;;;23.30;94.00;;;;;;5072301;28;20395;-60
2022/08/22 11:54:22;;;;;;;;;;;23.40;94.10;;;;;;5087460;28;19924;-62
2022/08/22 11:57:06;;;;;;;;;;;23.40;94.10;;;;;;5090120;28;19955;-56
2022/08/22 11:59:52;;;;;;;;;;;23.40;94.30;;;;;;5089138;28;20295;-61
2022/08/22 12:02:24;;;;;;;;;;;23.50;93.80;;;;;;5089841;28;19932;-59
2022/08/22 12:04:56;;;;;;;;;;;23.40;94.30;;;;;;5088656;28;20508;-60
2022/08/22 12:07:28;;;;;;;;;;;23.50;95.10;;;;;;5086075;28;19924;-61
2022/08/22 12:09:58;;;;;;;;;;;23.60;94.80;;;;;;5090011;28;19927;-62
2022/08/22 12:12:44;;;;;;;;;;;23.50;94.70;;;;;;5089744;28;19950;-58
2022/08/22 12:15:11;;;;;;;;;;;23.60;95.20;;;;;;5089741;28;19924;-60
2022/08/22 12:17:58;;;;;;;;;;;23.50;95.40;;;;;;5089781;28;19931;-61
2022/08/22 12:20:31;;;;;;;;;;;23.50;95.30;;;;;;5089976;28;19951;-56
2022/08/22 12:23:17;;;;;;;;;;;23.40;95.50;;;;;;5079870;28;20303;-55
2022/08/22 12:25:50;;;;;;;;;;;23.40;95.90;;;;;;5089518;28;19935;-56
2022/08/22 12:28:24;;;;;;;;;;;23.30;96.00;;;;;;5088219;28;20295;-57
2022/08/22 12:31:01;;;;;;;;;;;23.20;96.20;;;;;;5089542;28;19928;-56
2022/08/22 12:33:43;;;;;;;;;;;23.20;96.40;;;;;;5088284;28;19928;-55
2022/08/22 12:36:17;;;;;;;;;;;23.50;96.80;;;;;;5087784;28;20045;-56
2022/08/22 12:38:46;;;;;;;;;;;23.60;96.40;;;;;;5082287;28;20002;-55
2022/08/22 12:41:29;;;;;;;;;;;23.60;96.00;;;;;;5089501;28;19924;-56
2022/08/22 12:44:11;;;;;;;;;;;23.40;96.20;;;;;;5089559;28;19923;-57
2022/08/22 12:47:00;;;;;;;;;;;23.10;96.70;;;;;;5089259;28;19924;-62
2022/08/22 12:49:37;;;;;;;;;;;22.80;97.30;;;;;;5089125;28;19924;-62
2022/08/22 12:52:23;;;;;;;;;;;22.50;98.30;;;;;;5081396;28;19928;-61
2022/08/22 12:54:51;;;;;;;;;;;22.20;98.70;;;;;;5089030;28;19924;-61
2022/08/22 12:57:26;;;;;;;;;;;22.10;99.00;;;;;;5088984;28;20295;-61
2022/08/22 13:00:14;;;;;;;;;;;22.00;99.50;;;;;;5089136;28;19928;-61
2022/08/22 13:02:51;;;;;;;;;;;21.90;99.90;;;;;;5087708;28;19935;-62
2022/08/22 13:05:22;;;;;;;;;;;21.90;99.90;;;;;;5088913;28;19931;-59
2022/08/22 13:07:54;;;;;;;;;;;21.80;99.90;;;;;;5079999;28;19924;-61
2022/08/22 13:10:41;;;;;;;;;;;21.80;99.90;;;;;;5088747;28;19928;-61
2022/08/22 13:13:13;;;;;;;;;;;21.80;99.90;;;;;;5088611;28;19924;-59
2022/08/22 13:15:45;;;;;;;;;;;21.70;99.90;;;;;;5089007;28;19924;-60
2022/08/22 13:18:24;;;;;;;;;;;21.70;99.90;;;;;;5088559;28;19928;-57
2022/08/22 13:20:59;;;;;;;;;;;21.60;99.90;;;;;;5089030;28;20315;-60
2022/08/22 13:23:33;;;;;;;;;;;21.30;99.90;;;;;;5082483;28;19931;-61
2022/08/22 13:26:19;;;;;;;;;;;21.10;99.90;;;;;;5088860;28;19924;-57
2022/08/22 13:29:14;;;;;;;;;;;20.90;99.90;;;;;;5088364;28;19928;-60
2022/08/22 13:31:57;;;;;;;;;;;20.80;99.90;;;;;;5088795;28;19924;-62
2022/08/22 13:34:34;;;;;;;;;;;20.80;99.90;;;;;;5086941;28;19935;-62
2022/08/22 13:37:10;;;;;;;;;;;20.80;99.90;;;;;;5082749;28;20406;-61
2022/08/22 13:39:41;;;;;;;;;;;20.80;99.90;;;;;;5087776;28;20385;-60
2022/08/22 13:42:14;;;;;;;;;;;20.80;99.90;;;;;;5088578;28;19928;-62
2022/08/22 13:44:57;;;;;;;;;;;20.70;99.90;;;;;;5088617;28;19959;-58
2022/08/22 13:47:25;;;;;;;;;;;20.70;99.90;;;;;;5088497;28;19924;-59
2022/08/22 13:50:07;;;;;;;;;;;20.60;99.90;;;;;;5088442;28;20395;-58
2022/08/22 13:52:50;;;;;;;;;;;20.50;99.90;;;;;;5086780;28;19924;-57
2022/08/22 13:55:24;;;;;;;;;;;20.50;99.90;;;;;;5088696;28;19928;-55
2022/08/22 13:58:11;;;;;;;;;;;20.40;99.90;;;;;;5087091;28;19931;-57
2022/08/22 14:00:42;;;;;;;;;;;20.40;99.90;;;;;;5088458;28;19924;-57
2022/08/22 14:03:27;;;;;;;;;;;20.50;99.90;;;;;;5077610;28;19935;-57
2022/08/22 14:05:56;;;;;;;;;;;20.50;99.90;;;;;;5067742;28;20392;-58
2022/08/22 14:08:43;;;;;;;;;;;20.40;99.90;;;;;;5076760;28;19928;-57
2022/08/22 14:11:30;;;;;;;;;;;20.40;99.90;;;;;;5085390;28;19935;-56
2022/08/22 14:14:01;;;;;;;;;;;20.40;99.90;;;;;;5085556;28;20490;-57
2022/08/22 14:16:33;;;;;;;;;;;20.30;99.90;;;;;;5088137;28;19924;-58
2022/08/22 14:19:04;;;;;;;;;;;20.30;99.90;;;;;;5088169;28;19928;-57
2022/08/22 14:21:39;;;;;;;;;;;20.40;99.90;;;;;;5089548;28;20395;-58
2022/08/22 14:24:10;;;;;;;;;;;20.40;99.90;;;;;;5089348;28;19935;-57
2022/08/22 14:26:40;;;;;;;;;;;20.60;99.90;;;;;;5090143;28;19931;-57
2022/08/22 14:29:15;;;;;;;;;;;20.60;99.90;;;;;;5088688;28;19924;-58
2022/08/22 14:32:02;;;;;;;;;;;20.70;99.90;;;;;;5089848;28;19947;-58
2022/08/22 14:34:32;;;;;;;;;;;20.70;99.90;;;;;;5066068;28;20380;-58
2022/08/22 14:37:11;;;;;;;;;;;20.80;99.90;;;;;;5070594;28;20500;-56
2022/08/22 14:40:00;;;;;;;;;;;20.80;99.90;;;;;;5090340;28;19928;-58
2022/08/22 14:42:37;;;;;;;;;;;20.90;99.90;;;;;;5091141;28;19935;-58
2022/08/22 14:45:18;;;;;;;;;;;20.90;99.90;;;;;;5091461;28;19935;-60
2022/08/22 14:47:51;;;;;;;;;;;21.00;99.90;;;;;;5091196;28;19939;-59
2022/08/22 14:50:53;;;;;;;;;;;20.90;99.90;;;;;;5091615;28;19924;-57
2022/08/22 14:53:23;;;;;;;;;;;20.90;99.90;;;;;;5089735;28;19931;-57
2022/08/22 14:56:00;;;;;;;;;;;20.90;99.90;;;;;;5091327;28;20260;-56
2022/08/22 14:58:28;;;;;;;;;;;20.90;99.90;;;;;;5091297;28;19935;-54
2022/08/22 15:00:56;;;;;;;;;;;20.90;99.90;;;;;;5091619;28;20366;-55
2022/08/22 15:03:24;;;;;;;;;;;20.80;99.90;;;;;;5091220;28;19930;-54
2022/08/22 15:05:53;;;;;;;;;;;20.70;99.90;;;;;;5091041;28;19931;-54
2022/08/22 15:08:26;;;;;;;;;;;20.60;99.90;;;;;;5088206;28;20391;-54
2022/08/22 15:11:04;;;;;;;;;;;20.50;99.90;;;;;;5091099;28;19933;-54
2022/08/22 15:13:36;;;;;;;;;;;20.40;99.90;;;;;;5090724;28;19931;-57
2022/08/22 15:16:19;;;;;;;;;;;20.30;99.90;;;;;;5090856;28;19931;-57